Time;durP1;ratioP1;P1;durP2;ratioP2;P2;SDS_P1;SDS_P2;PMS_P1;PMS_P2;Temp;Humidity;BMP_temperature;BMP_pressure;BME280_temperature;BME280_humidity;BME280_pressure;Samples;Min_cycle;Max_cycle;Signal;HPM_P1;HPM_P2
2023/03/31 00:00:27;;;;;;;5.57;2.75;;;;;;;10.56;38.84;99777.47;3169602;28;20568;-63
2023/03/31 00:02:00;;;;;;;6.95;2.65;;;;;;;10.53;38.62;99775.88;3169036;28;20080;-63
2023/03/31 00:03:32;;;;;;;10.27;3.03;;;;;;;10.52;38.86;99781.16;3169627;28;20096;-63
2023/03/31 00:05:05;;;;;;;6.30;2.90;;;;;;;10.50;39.12;99778.63;3169517;28;20052;-62
2023/03/31 00:06:40;;;;;;;7.17;2.90;;;;;;;9.78;38.84;99669.91;3169360;28;20054;-63
2023/03/31 00:08:12;;;;;;;10.70;4.53;;;;;;;10.50;39.16;99769.94;3169330;28;20048;-63
2023/03/31 00:09:45;;;;;;;7.13;3.28;;;;;;;10.48;39.32;99770.03;3169296;28;20052;-63
2023/03/31 00:11:17;;;;;;;10.05;3.20;;;;;;;10.43;39.40;99769.41;3169427;28;20044;-63
2023/03/31 00:12:49;;;;;;;11.35;2.63;;;;;;;10.39;39.56;99767.84;3168759;28;20052;-63
2023/03/31 00:14:21;;;;;;;10.70;3.00;;;;;;;10.37;39.52;99772.28;3169459;28;20130;-63
2023/03/31 00:15:55;;;;;;;4.50;2.42;;;;;;;10.35;39.56;99771.50;3169659;28;20051;-63
2023/03/31 00:17:27;;;;;;;7.63;3.28;;;;;;;10.32;39.75;99764.66;3169256;28;20134;-63
2023/03/31 00:19:00;;;;;;;9.40;2.53;;;;;;;10.32;39.76;99763.81;3169559;28;20058;-63
2023/03/31 00:20:32;;;;;;;7.07;2.78;;;;;;;10.31;39.89;99764.75;3156959;28;20044;-63
2023/03/31 00:22:05;;;;;;;5.57;2.08;;;;;;;10.33;39.73;99760.31;3168015;28;20047;-63
2023/03/31 00:23:36;;;;;;;8.32;2.90;;;;;;;10.31;39.89;99768.19;3168608;28;20112;-63
2023/03/31 00:25:09;;;;;;;13.18;4.30;;;;;;;10.33;39.77;99762.91;3168601;28;20556;-63
2023/03/31 00:26:41;;;;;;;;;;;;;;;10.26;39.77;99762.28;3169879;28;20108;-63
2023/03/31 00:28:12;;;;;;;9.85;2.70;;;;;;;10.20;39.89;99759.97;3162768;28;19927;-63
2023/03/31 00:29:44;;;;;;;7.15;2.67;;;;;;;10.21;39.84;99769.50;3165503;28;20052;-63
2023/03/31 00:31:15;;;;;;;12.20;2.90;;;;;;;10.18;40.08;99765.25;3168888;28;20512;-63
2023/03/31 00:32:47;;;;;;;4.68;2.42;;;;;;;10.15;40.14;99764.56;3169306;28;20176;-63
2023/03/31 00:34:19;;;;;;;8.55;2.92;;;;;;;10.12;40.05;99759.47;3168969;28;20055;-63
2023/03/31 00:35:50;;;;;;;7.68;2.63;;;;;;;10.13;40.33;99763.75;3166485;28;20482;-63
2023/03/31 00:37:24;;;;;;;7.97;2.88;;;;;;;10.12;40.18;99762.94;3160845;28;20054;-64
2023/03/31 00:38:59;;;;;;;8.18;2.65;;;;;;;10.10;40.35;99756.94;3169337;28;20051;-60
2023/03/31 00:40:30;;;;;;;8.32;3.00;;;;;;;10.10;40.26;99762.13;3169490;28;20083;-60
2023/03/31 00:42:03;;;;;;;9.25;2.80;;;;;;;10.12;40.44;99762.94;3169094;28;20508;-64
2023/03/31 00:43:37;;;;;;;6.70;2.60;;;;;;;10.14;40.41;99758.47;3160910;28;20086;-63
2023/03/31 00:45:26;;;;;;;8.63;3.28;;;;;;;10.11;40.38;99750.81;3169600;28;20048;-63
2023/03/31 00:47:01;;;;;;;5.22;2.90;;;;;;;10.09;40.63;99746.63;3168725;28;20682;-62
2023/03/31 00:48:36;;;;;;;5.28;2.50;;;;;;;10.10;40.81;99750.88;3168565;28;20469;-62
2023/03/31 00:50:17;;;;;;;6.32;2.53;;;;;;;10.09;40.71;99739.66;3168976;28;20063;-62
2023/03/31 00:51:52;;;;;;;11.68;2.92;;;;;;;10.03;40.68;99726.91;3168888;28;20502;-62
2023/03/31 00:53:31;;;;;;;7.45;2.83;;;;;;;10.08;40.96;99742.28;3169408;28;20059;-62
2023/03/31 00:55:11;;;;;;;6.35;3.22;;;;;;;10.03;40.77;99729.50;3169018;28;20127;-62
2023/03/31 00:56:48;;;;;;;7.70;3.55;;;;;;;10.03;41.01;99738.16;3169118;28;20070;-62
2023/03/31 00:58:21;;;;;;;7.45;2.80;;;;;;;9.55;40.92;99669.16;3164568;28;20126;-62
2023/03/31 00:59:58;;;;;;;6.53;2.85;;;;;;;10.00;41.00;99745.25;3169185;28;20450;-62
2023/03/31 01:01:31;;;;;;;6.20;3.00;;;;;;;9.97;41.26;99742.78;3168647;28;20060;-62
2023/03/31 01:03:08;;;;;;;9.75;2.53;;;;;;;9.95;41.37;99742.00;3168819;28;20050;-62
2023/03/31 01:04:45;;;;;;;9.23;3.13;;;;;;;9.91;41.20;99736.09;3168744;28;20054;-62
2023/03/31 01:06:19;;;;;;;11.30;2.88;;;;;;;9.91;41.43;99732.63;3168904;28;20051;-62
2023/03/31 01:07:53;;;;;;;8.93;3.10;;;;;;;9.89;41.62;99735.31;3169052;28;20138;-62
2023/03/31 01:09:29;;;;;;;;;;;;;;;9.76;41.55;99736.72;3168851;28;20059;-62
2023/03/31 01:11:05;;;;;;;6.75;2.90;;;;;;;9.71;41.61;99739.53;3169374;28;19920;-62
2023/03/31 01:12:39;;;;;;;9.50;3.10;;;;;;;9.72;41.82;99742.97;3167360;28;20048;-62
2023/03/31 01:14:12;;;;;;;12.00;4.47;;;;;;;9.70;41.99;99740.47;3169266;28;20100;-62
2023/03/31 01:15:44;;;;;;;7.18;2.40;;;;;;;9.30;42.01;99674.53;3168941;28;20056;-62
2023/03/31 01:17:20;;;;;;;6.85;3.35;;;;;;;9.70;41.86;99745.66;3168978;28;20389;-62
2023/03/31 01:18:51;;;;;;;4.90;2.50;;;;;;;9.71;42.05;99749.94;3167566;28;20077;-62
2023/03/31 01:20:32;;;;;;;12.57;2.90;;;;;;;9.72;42.11;99749.03;3168902;28;20204;-62
2023/03/31 01:22:44;;;;;;;8.15;3.35;;;;;;;9.71;42.11;99746.50;3168907;28;20043;-62
2023/03/31 01:24:46;;;;;;;14.48;4.05;;;;;;;9.70;42.04;99748.25;3154001;28;20044;-62
2023/03/31 01:26:46;;;;;;;7.13;3.25;;;;;;;9.70;42.37;99748.25;3162222;28;20151;-62
2023/03/31 01:28:33;;;;;;;9.07;3.35;;;;;;;9.70;42.23;99748.25;3163144;28;20443;-62
2023/03/31 01:30:41;;;;;;;10.68;3.97;;;;;;;9.70;42.47;99745.66;3168908;28;20055;-62
2023/03/31 01:32:52;;;;;;;7.20;3.33;;;;;;;9.72;42.37;99749.03;3168635;28;20081;-62
2023/03/31 01:35:01;;;;;;;5.95;3.03;;;;;;;9.73;42.24;99749.88;3166808;28;20071;-62
2023/03/31 01:36:56;;;;;;;5.85;2.65;;;;;;;9.73;42.27;99744.66;3119015;28;20451;-62
2023/03/31 01:38:48;;;;;;;7.35;3.78;;;;;;;9.74;42.32;99744.59;3157260;28;20047;-62
2023/03/31 01:40:30;;;;;;;7.07;3.08;;;;;;;9.38;42.41;99683.78;3159372;28;20059;-62
2023/03/31 01:42:08;;;;;;;10.57;4.53;;;;;;;9.72;42.26;99740.38;3170543;28;20075;-62
2023/03/31 01:43:45;;;;;;;10.60;5.45;;;;;;;9.73;42.31;99736.84;3162715;28;20743;-62
2023/03/31 01:45:28;;;;;;;18.15;5.45;;;;;;;9.68;42.55;99728.44;3171246;28;20048;-62
2023/03/31 01:47:09;;;;;;;13.18;5.85;;;;;;;9.62;42.42;99724.34;3171068;28;20105;-62
2023/03/31 01:48:50;;;;;;;16.50;5.13;;;;;;;9.65;42.48;99719.00;3171222;28;20153;-62
2023/03/31 01:50:27;;;;;;;13.13;4.50;;;;;;;9.64;42.69;99721.66;3170704;28;20129;-62
2023/03/31 01:52:04;;;;;;;13.20;4.40;;;;;;;9.63;42.71;99728.63;3170988;28;20515;-62
2023/03/31 01:53:48;;;;;;;10.10;3.88;;;;;;;9.64;42.69;99727.69;3170546;28;20059;-63
2023/03/31 01:55:26;;;;;;;11.63;3.95;;;;;;;9.65;42.64;99732.00;3165338;28;20158;-63
2023/03/31 01:57:01;;;;;;;10.82;3.20;;;;;;;9.57;42.67;99724.50;3161064;28;20057;-63
2023/03/31 01:58:37;;;;;;;7.32;3.17;;;;;;;9.51;42.58;99716.13;3156356;28;20043;-63
2023/03/31 02:00:12;;;;;;;9.65;3.63;;;;;;;9.46;42.86;99718.06;3161854;28;20131;-62
2023/03/31 02:01:51;;;;;;;7.65;4.00;;;;;;;9.44;42.89;99714.72;3160857;28;20059;-62
2023/03/31 02:03:28;;;;;;;10.55;4.05;;;;;;;9.41;42.93;99714.84;3160970;28;20094;-62
2023/03/31 02:05:04;;;;;;;9.98;4.20;;;;;;;9.40;43.04;99713.97;3160970;28;20073;-62
2023/03/31 02:06:40;;;;;;;10.35;3.78;;;;;;;9.38;43.12;99717.56;3162523;28;20055;-62
2023/03/31 02:08:15;;;;;;;11.60;4.07;;;;;;;9.37;42.90;99716.69;3161599;28;20052;-62
2023/03/31 02:09:53;;;;;;;9.93;3.47;;;;;;;9.31;43.00;99704.81;3161436;28;20135;-62
2023/03/31 02:11:30;;;;;;;8.68;3.58;;;;;;;9.22;43.02;99707.78;3160591;28;20082;-62
2023/03/31 02:13:04;;;;;;;11.93;3.92;;;;;;;9.17;43.13;99707.16;3158447;28;20486;-62
2023/03/31 02:14:39;;;;;;;12.60;3.90;;;;;;;8.64;43.36;99624.47;3160168;28;20213;-62
2023/03/31 02:16:17;;;;;;;10.02;3.42;;;;;;;8.97;43.24;99689.78;3149726;28;20435;-61
2023/03/31 02:17:55;;;;;;;7.00;3.25;;;;;;;8.99;43.36;99700.06;3161529;28;20059;-62
2023/03/31 02:19:31;;;;;;;9.23;3.45;;;;;;;8.23;43.49;99593.16;3161249;28;20835;-62
2023/03/31 02:21:07;;;;;;;11.13;3.47;;;;;;;8.91;43.54;99705.59;3162298;28;20055;-62
2023/03/31 02:22:42;;;;;;;14.55;5.05;;;;;;;8.88;43.78;99705.72;3160580;28;20077;-62
2023/03/31 02:24:15;;;;;;;11.15;4.07;;;;;;;8.84;43.65;99699.81;3161222;28;20620;-62
2023/03/31 02:25:51;;;;;;;9.82;3.78;;;;;;;8.84;43.76;99704.13;3161813;28;20075;-62
2023/03/31 02:27:28;;;;;;;12.07;4.47;;;;;;;8.81;43.82;99702.50;3161689;28;20056;-63
2023/03/31 02:29:00;;;;;;;12.90;4.22;;;;;;;8.76;43.60;99704.44;3148960;28;20062;-62
2023/03/31 02:30:41;;;;;;;7.38;3.30;;;;;;;8.73;43.55;99698.53;3148945;28;20048;-62
2023/03/31 02:32:20;;;;;;;8.05;3.47;;;;;;;8.69;43.82;99695.19;3149800;28;20600;-63
2023/03/31 02:33:53;;;;;;;6.78;3.55;;;;;;;8.64;43.69;99702.34;3159702;28;20547;-63
2023/03/31 02:35:25;;;;;;;9.00;3.80;;;;;;;8.62;43.81;99702.38;3158574;28;20116;-62
2023/03/31 02:36:57;;;;;;;9.60;4.10;;;;;;;8.58;44.04;99697.38;3160953;28;20139;-62
2023/03/31 02:38:34;;;;;;;10.73;3.80;;;;;;;8.57;44.10;99699.13;3148427;28;20490;-62
2023/03/31 02:40:10;;;;;;;7.38;3.75;;;;;;;8.57;44.16;99703.47;3151037;28;20805;-63
2023/03/31 02:41:42;;;;;;;12.27;3.85;;;;;;;8.57;44.10;99703.47;3157969;28;20270;-63
2023/03/31 02:43:16;;;;;;;9.05;3.40;;;;;;;8.58;44.23;99707.78;3154227;28;20072;-62
2023/03/31 02:44:48;;;;;;;6.72;3.05;;;;;;;8.57;44.39;99706.06;3159792;28;20077;-63
2023/03/31 02:46:20;;;;;;;9.45;3.40;;;;;;;8.57;44.21;99703.47;3161154;28;20051;-63
2023/03/31 02:47:52;;;;;;;7.07;3.53;;;;;;;8.58;44.24;99705.19;3161030;28;20872;-63
2023/03/31 02:49:24;;;;;;;6.68;3.10;;;;;;;8.56;44.27;99705.22;3160564;28;20057;-63
2023/03/31 02:51:30;;;;;;;8.73;3.88;;;;;;;8.50;44.21;99702.88;3160452;28;20142;-63
2023/03/31 02:53:08;;;;;;;8.27;3.47;;;;;;;8.51;44.27;99709.72;3160982;28;20051;-63
2023/03/31 02:55:09;;;;;;;12.77;3.70;;;;;;;8.49;44.44;99708.09;3160988;28;20085;-61
2023/03/31 02:56:59;;;;;;;7.88;3.78;;;;;;;8.42;44.45;99697.94;3158465;28;20165;-61
2023/03/31 02:58:48;;;;;;;9.00;3.75;;;;;;;8.47;44.69;99695.19;3155644;28;20280;-61
2023/03/31 03:00:30;;;;;;;9.23;3.97;;;;;;;8.49;44.70;99703.78;3161320;28;20053;-61
2023/03/31 03:02:13;;;;;;;11.88;4.32;;;;;;;8.45;44.86;99702.19;3161586;28;20744;-61
2023/03/31 03:04:02;;;;;;;7.82;4.43;;;;;;;8.46;45.02;99706.50;3161443;28;20069;-61
2023/03/31 03:05:48;;;;;;;11.95;5.72;;;;;;;8.47;44.93;99709.94;3157169;28;20051;-61
2023/03/31 03:07:28;;;;;;;10.70;4.22;;;;;;;8.49;45.09;99708.09;3159930;28;20236;-61
2023/03/31 03:09:17;;;;;;;12.48;5.38;;;;;;;8.48;45.05;99701.22;3160181;28;20059;-62
2023/03/31 03:11:02;;;;;;;12.02;4.43;;;;;;;8.51;44.86;99708.91;3159534;28;20273;-62
2023/03/31 03:12:45;;;;;;;7.95;3.90;;;;;;;8.54;45.00;99719.16;3147493;28;20524;-62
2023/03/31 03:14:28;;;;;;;7.18;3.17;;;;;;;8.57;45.08;99722.47;3147074;28;20062;-61
2023/03/31 03:16:04;;;;;;;9.35;3.67;;;;;;;8.60;44.96;99724.09;3148269;28;20052;-62
2023/03/31 03:17:39;;;;;;;9.07;3.53;;;;;;;8.63;44.87;99726.59;3160179;28;20535;-62
2023/03/31 03:19:19;;;;;;;7.80;3.75;;;;;;;8.63;44.85;99718.78;3160293;28;20067;-62
2023/03/31 03:20:51;;;;;;;7.38;3.08;;;;;;;8.66;44.62;99723.88;3159811;28;20082;-62
2023/03/31 03:22:23;;;;;;;7.03;3.47;;;;;;;8.66;44.77;99722.13;3160051;28;20504;-62
2023/03/31 03:23:56;;;;;;;9.38;3.28;;;;;;;8.69;44.71;99730.69;3161406;28;20055;-63
2023/03/31 03:25:29;;;;;;;8.95;3.88;;;;;;;8.69;44.63;99728.09;3152961;28;20067;-62
2023/03/31 03:27:01;;;;;;;9.15;3.53;;;;;;;8.68;44.78;99732.47;3158325;28;20461;-62
2023/03/31 03:28:33;;;;;;;10.70;3.63;;;;;;;8.68;44.70;99729.84;3160030;28;20055;-63
2023/03/31 03:30:09;;;;;;;6.20;3.20;;;;;;;8.68;44.91;99736.81;3159774;28;20052;-63
2023/03/31 03:31:42;;;;;;;8.55;3.92;;;;;;;8.66;44.64;99731.66;3159467;28;20538;-63
2023/03/31 03:33:15;;;;;;;12.80;3.67;;;;;;;8.63;44.89;99732.63;3159995;28;20866;-63
2023/03/31 03:34:47;;;;;;;6.53;3.10;;;;;;;8.65;44.96;99732.56;3159391;28;20116;-63
2023/03/31 03:36:20;;;;;;;7.18;3.30;;;;;;;8.64;44.99;99733.50;3159417;28;20055;-63
2023/03/31 03:37:52;;;;;;;7.22;3.30;;;;;;;8.64;44.70;99736.09;3161313;28;20062;-64
2023/03/31 03:39:24;;;;;;;9.90;3.65;;;;;;;8.60;45.01;99737.09;3160976;28;20063;-63
2023/03/31 03:40:56;;;;;;;11.48;4.03;;;;;;;8.58;44.95;99739.75;3159999;28;20079;-63
2023/03/31 03:42:28;;;;;;;8.38;4.05;;;;;;;8.59;44.84;99738.84;3159169;28;20511;-61
2023/03/31 03:44:00;;;;;;;7.32;3.50;;;;;;;8.60;44.99;99744.88;3151424;28;20535;-61
2023/03/31 03:45:34;;;;;;;9.82;4.00;;;;;;;8.61;44.92;99738.81;3159467;28;20051;-62
2023/03/31 03:47:06;;;;;;;11.05;4.35;;;;;;;8.59;44.82;99735.41;3159811;28;20083;-62
2023/03/31 03:48:36;;;;;;;9.65;4.30;;;;;;;8.59;44.92;99738.00;3160032;28;20182;-62
2023/03/31 03:50:10;;;;;;;12.40;4.38;;;;;;;8.58;45.08;99724.19;3163234;28;20095;-62
2023/03/31 03:51:41;;;;;;;14.23;4.28;;;;;;;8.59;44.99;99738.84;3159733;28;20124;-62
2023/03/31 03:53:14;;;;;;;10.02;4.65;;;;;;;8.59;45.00;99723.28;3160168;28;20047;-62
2023/03/31 03:54:46;;;;;;;10.20;4.60;;;;;;;8.56;45.05;99720.78;3160100;28;20055;-62
2023/03/31 03:56:18;;;;;;;9.88;4.45;;;;;;;8.55;45.00;99724.31;3159479;28;20058;-62
2023/03/31 03:57:50;;;;;;;10.05;4.78;;;;;;;8.53;45.26;99727.84;3156076;28;20055;-62
2023/03/31 03:59:21;;;;;;;21.40;4.55;;;;;;;8.52;44.96;99736.53;3158592;28;20241;-62
2023/03/31 04:00:55;;;;;;;9.98;4.30;;;;;;;8.52;45.18;99728.75;3160322;28;20093;-63
2023/03/31 04:02:28;;;;;;;10.35;4.32;;;;;;;8.47;45.13;99733.28;3160889;28;20142;-62
2023/03/31 04:04:00;;;;;;;10.75;4.35;;;;;;;8.44;45.00;99726.44;3160975;28;20138;-62
2023/03/31 04:05:32;;;;;;;8.95;4.82;;;;;;;8.46;45.05;99736.75;3160211;28;20099;-63
2023/03/31 04:07:04;;;;;;;10.48;4.28;;;;;;;8.47;45.13;99733.28;3158538;28;20051;-63
2023/03/31 04:08:36;;;;;;;14.45;4.35;;;;;;;8.47;45.05;99730.69;3155284;28;20138;-63
2023/03/31 04:10:09;;;;;;;12.07;4.28;;;;;;;8.48;44.97;99732.38;3160801;28;20082;-63
2023/03/31 04:11:41;;;;;;;19.13;4.80;;;;;;;8.47;45.05;99730.69;3159717;28;20234;-63
2023/03/31 04:13:13;;;;;;;20.60;4.63;;;;;;;8.35;44.95;99712.03;3158334;28;20052;-63
2023/03/31 04:14:45;;;;;;;12.38;4.53;;;;;;;8.45;44.98;99724.69;3160088;28;20577;-62
2023/03/31 04:16:18;;;;;;;12.82;4.80;;;;;;;8.47;44.90;99728.09;3159630;28;20182;-62
2023/03/31 04:17:53;;;;;;;9.10;4.53;;;;;;;8.43;44.97;99725.63;3160382;28;20055;-63
2023/03/31 04:19:26;;;;;;;16.75;5.00;;;;;;;8.41;45.15;99716.19;3159108;28;20097;-62
2023/03/31 04:21:03;;;;;;;17.27;5.13;;;;;;;8.38;45.12;99708.50;3159784;28;20055;-62
2023/03/31 04:22:39;;;;;;;12.75;4.57;;;;;;;8.37;45.16;99714.56;3159594;28;20079;-63
2023/03/31 04:24:20;;;;;;;10.90;4.20;;;;;;;8.35;45.16;99703.41;3160606;28;20435;-64
2023/03/31 04:25:52;;;;;;;12.38;4.93;;;;;;;8.35;45.08;99706.00;3160123;28;20048;-64
2023/03/31 04:27:25;;;;;;;11.13;4.95;;;;;;;8.35;45.17;99716.38;3159677;28;20047;-64
2023/03/31 04:28:59;;;;;;;14.73;4.70;;;;;;;8.33;45.16;99700.88;3159716;28;20055;-63
2023/03/31 04:30:31;;;;;;;13.88;6.00;;;;;;;8.37;45.10;99697.28;3159775;28;20052;-63
2023/03/31 04:32:05;;;;;;;16.73;4.82;;;;;;;8.40;45.07;99704.09;3147257;28;20466;-63
2023/03/31 04:33:37;;;;;;;13.52;6.32;;;;;;;8.41;45.02;99700.63;3158200;28;20121;-67
2023/03/31 04:35:14;;;;;;;37.15;15.93;;;;;;;8.42;44.91;99697.09;3155159;28;20048;-66
2023/03/31 04:36:47;;;;;;;28.45;13.25;;;;;;;8.42;45.03;99695.34;3147258;28;20056;-67
2023/03/31 04:38:21;;;;;;;31.73;12.68;;;;;;;8.49;44.97;99692.53;3159698;28;20334;-65
2023/03/31 04:39:53;;;;;;;21.13;6.82;;;;;;;8.50;44.90;99702.03;3159295;28;20677;-67
2023/03/31 04:41:27;;;;;;;15.43;6.38;;;;;;;8.51;44.93;99694.16;3159807;28;20047;-63
2023/03/31 04:42:59;;;;;;;12.30;5.45;;;;;;;8.55;45.21;99703.53;3155297;28;20047;-62
2023/03/31 04:44:31;;;;;;;18.35;5.82;;;;;;;8.59;45.15;99702.50;3154016;28;20283;-63
2023/03/31 04:46:03;;;;;;;12.13;5.18;;;;;;;8.61;45.05;99694.66;3160000;28;20412;-65
2023/03/31 04:47:36;;;;;;;15.00;6.15;;;;;;;8.64;44.99;99710.97;3159866;28;20343;-63
2023/03/31 04:49:08;;;;;;;16.67;6.47;;;;;;;8.65;44.77;99704.84;3159760;28;20104;-62
2023/03/31 04:50:40;;;;;;;16.40;5.80;;;;;;;8.70;44.95;99704.69;3159477;28;20047;-62
2023/03/31 04:52:12;;;;;;;14.52;5.22;;;;;;;8.74;45.00;99700.22;3159142;28;20565;-65
2023/03/31 04:53:44;;;;;;;14.55;6.72;;;;;;;8.79;44.96;99703.50;3158894;28;20055;-64
2023/03/31 04:55:16;;;;;;;12.32;5.35;;;;;;;8.82;44.69;99704.22;3160032;28;20048;-63
2023/03/31 04:56:48;;;;;;;18.45;5.57;;;;;;;8.87;44.73;99702.28;3159212;28;20051;-64
2023/03/31 04:58:20;;;;;;;12.20;5.93;;;;;;;8.89;44.62;99692.66;3151509;28;20101;-65
2023/03/31 04:59:52;;;;;;;14.35;5.03;;;;;;;8.94;44.53;99687.28;3159378;28;20094;-63
2023/03/31 05:01:24;;;;;;;11.02;5.28;;;;;;;8.97;44.35;99686.34;3147748;28;20066;-62
2023/03/31 05:02:59;;;;;;;11.30;4.70;;;;;;;9.01;43.99;99685.28;3160154;28;20134;-62
2023/03/31 05:04:31;;;;;;;10.90;4.53;;;;;;;8.99;44.07;99672.38;3159054;28;20105;-64
2023/03/31 05:06:03;;;;;;;10.40;4.55;;;;;;;9.06;43.88;99686.78;3159802;28;20535;-65
2023/03/31 05:07:34;;;;;;;13.95;4.75;;;;;;;9.07;43.88;99685.03;3159867;28;20504;-64
2023/03/31 05:09:08;;;;;;;12.23;5.40;;;;;;;9.09;43.77;99681.47;3159296;28;20048;-62
2023/03/31 05:10:40;;;;;;;15.27;5.53;;;;;;;9.10;43.66;99680.56;3158820;28;20085;-65
2023/03/31 05:12:12;;;;;;;13.20;5.68;;;;;;;9.11;43.56;99666.69;3159729;28;20135;-65
2023/03/31 05:13:44;;;;;;;12.27;4.80;;;;;;;9.12;43.60;99659.72;3153240;28;20052;-65
2023/03/31 05:15:16;;;;;;;9.65;4.50;;;;;;;9.08;43.45;99647.75;3162365;28;20542;-65
2023/03/31 05:16:48;;;;;;;10.05;4.88;;;;;;;9.16;43.45;99645.69;3162317;28;20494;-65
2023/03/31 05:18:21;;;;;;;14.00;5.18;;;;;;;9.18;43.46;99645.63;3161673;28;20119;-65
2023/03/31 05:19:53;;;;;;;11.35;4.60;;;;;;;9.19;43.18;99644.72;3161360;28;20588;-64
2023/03/31 05:21:29;;;;;;;16.00;5.10;;;;;;;9.19;43.47;99642.97;3160665;28;20097;-65
2023/03/31 05:23:01;;;;;;;11.95;5.25;;;;;;;9.19;43.16;99629.97;3161263;28;20061;-67
2023/03/31 05:24:33;;;;;;;17.95;6.03;;;;;;;9.22;42.92;99640.22;3160939;28;20489;-62
2023/03/31 05:26:06;;;;;;;18.70;6.53;;;;;;;9.23;43.05;99641.94;3161671;28;20491;-63
2023/03/31 05:27:38;;;;;;;;;;;;;;;9.20;43.18;99646.41;3159639;28;20158;-64
2023/03/31 05:29:10;;;;;;;138.95;57.05;;;;;;;9.20;42.96;99647.25;3162787;28;20028;-64
2023/03/31 05:30:42;;;;;;;73.05;31.05;;;;;;;9.25;43.23;99634.06;3162684;28;20048;-64
2023/03/31 05:32:14;;;;;;;118.15;51.05;;;;;;;9.28;43.21;99636.53;3162851;28;20043;-65
2023/03/31 05:33:48;;;;;;;29.98;12.43;;;;;;;9.31;42.96;99633.81;3162362;28;20124;-62
2023/03/31 05:35:20;;;;;;;16.15;6.40;;;;;;;9.34;42.86;99644.91;3161302;28;20058;-63
2023/03/31 05:36:52;;;;;;;20.45;5.65;;;;;;;9.34;42.91;99634.50;3163004;28;20055;-62
2023/03/31 05:38:27;;;;;;;13.20;4.82;;;;;;;9.37;42.71;99637.91;3161850;28;20106;-65
2023/03/31 05:39:59;;;;;;;16.45;5.00;;;;;;;9.37;42.78;99632.69;3162856;28;20130;-65
2023/03/31 05:41:31;;;;;;;18.90;5.18;;;;;;;9.39;42.87;99639.53;3162478;28;20335;-64
2023/03/31 05:43:03;;;;;;;12.48;4.63;;;;;;;9.41;42.88;99629.06;3156306;28;20460;-60
2023/03/31 05:44:35;;;;;;;12.77;5.68;;;;;;;9.44;42.58;99624.59;3154627;28;20870;-61
2023/03/31 05:46:07;;;;;;;119.35;56.42;;;;;;;9.48;42.73;99623.53;3162014;28;20187;-61
2023/03/31 05:47:39;;;;;;;72.40;25.40;;;;;;;9.52;42.56;99626.84;3161954;28;20047;-64
2023/03/31 05:49:15;;;;;;;35.08;15.70;;;;;;;9.56;42.65;99631.00;3162200;28;20561;-67
2023/03/31 05:50:47;;;;;;;103.60;40.03;;;;;;;9.60;42.60;99626.50;3160765;28;20086;-65
2023/03/31 05:52:19;;;;;;;46.08;19.63;;;;;;;9.63;42.39;99627.22;3161721;28;20059;-66
2023/03/31 05:53:57;;;;;;;27.25;7.70;;;;;;;9.63;42.25;99629.81;3164176;27;20053;-66
2023/03/31 05:55:29;;;;;;;22.17;7.13;;;;;;;9.66;42.11;99629.69;3161414;28;20060;-66
2023/03/31 05:57:01;;;;;;;24.33;5.97;;;;;;;9.68;42.06;99629.63;3162124;28;20134;-66
2023/03/31 05:58:35;;;;;;;12.65;5.50;;;;;;;9.69;42.24;99621.75;3152938;28;20075;-67
2023/03/31 06:00:09;;;;;;;10.90;4.82;;;;;;;9.70;42.28;99627.78;3155392;28;20127;-71
2023/03/31 06:01:41;;;;;;;11.07;5.05;;;;;;;9.72;42.24;99624.19;3160919;28;20058;-66
2023/03/31 06:03:13;;;;;;;22.73;5.32;;;;;;;9.76;42.07;99617.09;3161532;28;20088;-67
2023/03/31 06:04:47;;;;;;;11.18;4.72;;;;;;;9.79;42.28;99615.22;3162128;27;20113;-66
2023/03/31 06:06:19;;;;;;;;;;;;;;;9.77;42.18;99614.44;3161929;28;20518;-71
2023/03/31 06:07:51;;;;;;;12.73;5.75;;;;;;;9.81;42.02;99615.16;3161521;28;19934;-69
2023/03/31 06:09:23;;;;;;;21.85;6.35;;;;;;;9.87;41.89;99614.03;3158547;28;20138;-63
2023/03/31 06:10:54;;;;;;;12.82;5.85;;;;;;;9.88;41.81;99602.69;3162074;28;20052;-68
2023/03/31 06:12:26;;;;;;;21.48;6.45;;;;;;;9.97;42.07;99604.91;3161601;28;20531;-65
2023/03/31 06:13:58;;;;;;;19.88;6.25;;;;;;;9.20;41.61;99486.19;3162367;28;20064;-63
2023/03/31 06:15:30;;;;;;;33.95;8.18;;;;;;;10.04;41.63;99608.91;3161508;28;20166;-64
2023/03/31 06:17:02;;;;;;;23.35;8.10;;;;;;;10.06;41.80;99614.03;3161896;28;20052;-63
2023/03/31 06:18:35;;;;;;;33.13;9.10;;;;;;;10.12;41.90;99622.41;3161133;28;20079;-62
2023/03/31 06:20:10;;;;;;;27.73;9.60;;;;;;;10.09;41.84;99619.13;3160791;28;20455;-62
2023/03/31 06:21:42;;;;;;;26.48;8.82;;;;;;;10.11;41.97;99627.69;3160454;28;20052;-66
2023/03/31 06:23:14;;;;;;;39.10;10.85;;;;;;;10.11;42.28;99623.31;3159968;28;20051;-62
2023/03/31 06:24:49;;;;;;;27.80;10.82;;;;;;;10.10;42.29;99619.03;3151950;28;20059;-67
2023/03/31 06:26:21;;;;;;;41.30;12.55;;;;;;;10.13;42.56;99618.06;3160799;28;20043;-66
2023/03/31 06:27:53;;;;;;;32.08;9.68;;;;;;;10.13;42.56;99621.50;3156980;28;20533;-68
2023/03/31 06:29:26;;;;;;;27.30;8.77;;;;;;;10.09;42.76;99617.34;3157117;28;20067;-67
2023/03/31 06:31:05;;;;;;;21.05;8.07;;;;;;;10.03;42.93;99612.44;3162032;28;20184;-68
2023/03/31 06:32:37;;;;;;;24.08;8.05;;;;;;;9.95;43.14;99612.78;3161915;28;20057;-67
2023/03/31 06:34:09;;;;;;;22.90;8.18;;;;;;;9.76;43.61;99609.31;3161490;28;20051;-68
2023/03/31 06:35:41;;;;;;;18.38;7.47;;;;;;;9.72;43.67;99613.81;3162019;28;20128;-69
2023/03/31 06:37:14;;;;;;;20.58;7.57;;;;;;;9.67;43.84;99614.91;3161997;28;20307;-66
2023/03/31 06:38:46;;;;;;;25.08;7.75;;;;;;;9.66;44.21;99605.44;3160089;28;20655;-68
2023/03/31 06:40:18;;;;;;;28.85;11.07;;;;;;;9.69;43.97;99611.34;3156743;28;20417;-64
2023/03/31 06:41:50;;;;;;;17.52;8.35;;;;;;;9.66;44.10;99597.63;3153403;28;20060;-67
2023/03/31 06:43:23;;;;;;;24.02;8.38;;;;;;;9.72;44.44;99615.56;3156246;28;20045;-63
2023/03/31 06:44:55;;;;;;;26.52;8.07;;;;;;;9.72;44.52;99606.00;3158204;28;20293;-66
2023/03/31 06:46:27;;;;;;;27.35;10.23;;;;;;;9.67;44.68;99610.59;3157769;28;20245;-67
2023/03/31 06:47:59;;;;;;;22.80;8.43;;;;;;;9.68;44.94;99611.44;3153721;28;20056;-64
2023/03/31 06:49:31;;;;;;;26.08;9.57;;;;;;;9.66;44.70;99603.69;3160118;27;20501;-67
2023/03/31 06:51:07;;;;;;;26.65;8.02;;;;;;;9.72;44.85;99598.19;3154283;28;20882;-65
2023/03/31 06:52:39;;;;;;;24.23;8.50;;;;;;;9.31;44.77;99525.50;3157724;28;20490;-66
2023/03/31 06:54:11;;;;;;;21.45;7.35;;;;;;;9.82;44.49;99596.06;3156081;28;20467;-61
2023/03/31 06:55:43;;;;;;;23.23;7.47;;;;;;;9.87;44.78;99594.06;3158595;28;20062;-66
2023/03/31 06:57:15;;;;;;;20.55;7.97;;;;;;;9.90;44.64;99590.47;3159756;28;20059;-64
2023/03/31 06:58:47;;;;;;;16.17;7.35;;;;;;;9.90;44.98;99598.28;3153989;28;20056;-64
2023/03/31 07:00:20;;;;;;;19.65;6.63;;;;;;;9.93;44.95;99593.78;3157002;28;20108;-65
2023/03/31 07:01:52;;;;;;;29.73;7.25;;;;;;;9.97;45.17;99594.50;3155985;28;20063;-68
2023/03/31 07:03:24;;;;;;;27.67;8.38;;;;;;;9.99;45.20;99596.09;3151371;28;20111;-65
2023/03/31 07:04:56;;;;;;;29.48;7.22;;;;;;;9.97;45.13;99587.53;3157287;28;20090;-64
2023/03/31 07:06:29;;;;;;;27.40;7.78;;;;;;;9.20;45.39;99452.41;3153193;28;20044;-73
2023/03/31 07:08:01;;;;;;;;;;;;;;;10.02;45.06;99579.50;3157852;28;20142;-67
2023/03/31 07:09:33;;;;;;;19.25;7.13;;;;;;;10.10;45.08;99577.41;3160461;28;19924;-64
2023/03/31 07:11:05;;;;;;;28.17;9.75;;;;;;;10.17;45.16;99576.19;3159353;28;20145;-66
2023/03/31 07:12:37;;;;;;;25.38;8.02;;;;;;;10.33;44.89;99583.31;3159103;28;20112;-65
2023/03/31 07:14:10;;;;;;;21.45;8.43;;;;;;;10.39;44.93;99588.22;3151995;28;20460;-65
2023/03/31 07:15:42;;;;;;;21.73;7.03;;;;;;;10.43;45.23;99584.56;3161737;28;20388;-65
2023/03/31 07:17:14;;;;;;;30.90;13.57;;;;;;;10.50;45.13;99587.69;3161578;28;20499;-64
2023/03/31 07:18:46;;;;;;;32.53;9.27;;;;;;;10.61;44.80;99585.44;3160794;28;20161;-65
2023/03/31 07:20:19;;;;;;;21.05;7.97;;;;;;;10.71;44.92;99586.69;3160334;27;20614;-66
2023/03/31 07:21:53;;;;;;;17.65;6.93;;;;;;;10.94;44.48;99582.91;3160140;28;20069;-64
2023/03/31 07:23:25;;;;;;;15.98;6.43;;;;;;;11.29;43.94;99586.34;3161209;28;20047;-62
2023/03/31 07:24:57;;;;;;;15.60;7.00;;;;;;;11.68;43.32;99589.56;3161696;28;20047;-62
2023/03/31 07:26:29;;;;;;;22.67;7.97;;;;;;;12.02;42.79;99586.03;3156867;28;20052;-64
2023/03/31 07:28:03;;;;;;;25.33;7.50;;;;;;;11.75;42.13;99515.28;3149396;28;20424;-65
2023/03/31 07:29:35;;;;;;;;;;;;;;;12.36;42.09;99587.59;3154949;28;20047;-64